Time,TemperatureF,DewpointF,PressureIn,WindDirection,WindDirectionDegrees,WindSpeedMPH,WindSpeedGustMPH,Humidity,HourlyPrecipIn,Conditions,Clouds,dailyrainin,SoftwareType,DateUTC
2013-02-20 00:13:00,33.9,20.0,30.24,NNW,346,1.0,5.0,56,0.00,,,0.09,weatherlink.com 1.10,2013-02-20 06:13:00,
2013-02-20 00:28:00,33.3,19.0,30.24,NNW,344,1.0,5.0,57,0.00,,,0.09,weatherlink.com 1.10,2013-02-20 06:28:00,
2013-02-20 00:43:00,32.7,19.0,30.24,NW,317,0.0,5.0,58,0.00,,,0.09,weatherlink.com 1.10,2013-02-20 06:43:00,
2013-02-20 00:58:00,32.0,19.0,30.26,NNE,15,0.0,3.0,60,0.00,,,0.09,weatherlink.com 1.10,2013-02-20 06:58:00,
2013-02-20 01:13:00,31.4,20.0,30.25,NNW,333,2.0,4.0,62,0.00,,,0.09,weatherlink.com 1.10,2013-02-20 07:13:00,
2013-02-20 01:28:00,30.8,20.0,30.25,NW,318,0.0,6.0,65,0.00,,,0.09,weatherlink.com 1.10,2013-02-20 07:28:00,
2013-02-20 01:43:00,30.3,20.0,30.26,NNE,13,2.0,3.0,66,0.00,,,0.09,weatherlink.com 1.10,2013-02-20 07:43:00,
2013-02-20 01:58:00,29.7,20.0,30.25,NE,48,3.0,7.0,68,0.00,,,0.09,weatherlink.com 1.10,2013-02-20 07:58:00,
2013-02-20 02:13:00,29.2,19.0,30.26,WNW,293,0.0,5.0,67,0.00,,,0.00,weatherlink.com 1.10,2013-02-20 08:13:00,
2013-02-20 02:28:00,28.7,19.0,30.26,NNW,346,1.0,7.0,66,0.00,,,0.00,weatherlink.com 1.10,2013-02-20 08:28:00,
2013-02-20 02:43:00,28.3,17.0,30.26,NE,36,1.0,6.0,64,0.00,,,0.00,weatherlink.com 1.10,2013-02-20 08:43:00,
2013-02-20 02:58:00,27.9,17.0,30.26,NNW,330,0.0,6.0,64,0.00,,,0.00,weatherlink.com 1.10,2013-02-20 08:58:00,
2013-02-20 03:13:00,27.5,17.0,30.25,NW,320,1.0,4.0,65,0.00,,,0.00,weatherlink.com 1.10,2013-02-20 09:13:00,
2013-02-20 03:28:00,27.2,17.0,30.26,NW,312,0.0,4.0,65,0.00,,,0.00,weatherlink.com 1.10,2013-02-20 09:28:00,
2013-02-20 03:43:00,26.9,17.0,30.26,NNW,340,1.0,2.0,66,0.00,,,0.00,weatherlink.com 1.10,2013-02-20 09:43:00,
2013-02-20 03:58:00,26.7,17.0,30.27,NW,315,0.0,3.0,66,0.00,,,0.00,weatherlink.com 1.10,2013-02-20 09:58:00,
2013-02-20 04:13:00,26.3,17.0,30.28,WNW,291,0.0,2.0,67,0.00,,,0.00,weatherlink.com 1.10,2013-02-20 10:13:00,
2013-02-20 04:28:00,26.0,17.0,30.29,WNW,297,0.0,1.0,69,0.00,,,0.00,weatherlink.com 1.10,2013-02-20 10:28:00,
2013-02-20 04:43:00,25.5,17.0,30.28,WNW,297,0.0,0.0,69,0.00,,,0.00,weatherlink.com 1.10,2013-02-20 10:43:00,
2013-02-20 04:58:00,25.4,17.0,30.28,WNW,297,0.0,1.0,69,0.00,,,0.00,weatherlink.com 1.10,2013-02-20 10:58:00,
2013-02-20 05:13:00,25.1,16.0,30.28,NNE,19,1.0,2.0,69,0.00,,,0.00,weatherlink.com 1.10,2013-02-20 11:13:00,
2013-02-20 05:28:00,25.1,16.0,30.28,North,360,0.0,3.0,67,0.00,,,0.00,weatherlink.com 1.10,2013-02-20 11:28:00,
2013-02-20 05:43:00,24.8,16.0,30.29,North,360,0.0,3.0,68,0.00,,,0.00,weatherlink.com 1.10,2013-02-20 11:43:00,
2013-02-20 05:58:00,24.5,16.0,30.29,North,360,0.0,1.0,69,0.00,,,0.00,weatherlink.com 1.10,2013-02-20 11:58:00,
2013-02-20 06:13:00,24.1,16.0,30.29,North,360,0.0,0.0,71,0.00,,,0.00,weatherlink.com 1.10,2013-02-20 12:13:00,
2013-02-20 06:28:00,23.5,16.0,30.29,North,360,0.0,0.0,73,0.00,,,0.00,weatherlink.com 1.10,2013-02-20 12:28:00,
2013-02-20 06:44:00,23.3,17.0,30.29,North,360,0.0,0.0,77,0.00,,,0.00,weatherlink.com 1.10,2013-02-20 12:44:00,
2013-02-20 06:59:00,23.9,18.0,30.30,North,360,0.0,1.0,77,0.00,,,0.00,weatherlink.com 1.10,2013-02-20 12:59:00,
2013-02-20 07:14:00,24.9,19.0,30.29,North,360,0.0,0.0,77,0.00,,,0.00,weatherlink.com 1.10,2013-02-20 13:14:00,
2013-02-20 07:29:00,26.0,18.0,30.30,North,360,0.0,2.0,71,0.00,,,0.00,weatherlink.com 1.10,2013-02-20 13:29:00,
2013-02-20 07:44:00,26.5,17.0,30.31,NNE,32,0.0,3.0,68,0.00,,,0.00,weatherlink.com 1.10,2013-02-20 13:44:00,
2013-02-20 07:59:00,27.7,18.0,30.33,West,263,0.0,5.0,67,0.00,,,0.00,weatherlink.com 1.10,2013-02-20 13:59:00,
2013-02-20 08:14:00,28.1,18.0,30.34,NNW,348,1.0,3.0,65,0.00,,,0.00,weatherlink.com 1.10,2013-02-20 14:14:00,
2013-02-20 08:29:00,28.3,18.0,30.35,NE,49,2.0,5.0,65,0.00,,,0.00,weatherlink.com 1.10,2013-02-20 14:29:00,
2013-02-20 08:44:00,28.5,18.0,30.34,NW,319,0.0,4.0,64,0.00,,,0.00,weatherlink.com 1.10,2013-02-20 14:44:00,
2013-02-20 08:59:00,28.3,17.0,30.33,NE,51,1.0,5.0,63,0.00,,,0.00,weatherlink.com 1.10,2013-02-20 14:59:00,
2013-02-20 09:14:00,28.8,18.0,30.34,North,5,1.0,4.0,63,0.00,,,0.00,weatherlink.com 1.10,2013-02-20 15:14:00,
2013-02-20 09:29:00,29.0,17.0,30.34,West,271,0.0,6.0,61,0.00,,,0.00,weatherlink.com 1.10,2013-02-20 15:29:00,
2013-02-20 09:44:00,29.6,17.0,30.34,NW,313,0.0,5.0,60,0.00,,,0.00,weatherlink.com 1.10,2013-02-20 15:44:00,
2013-02-20 09:59:00,30.3,18.0,30.36,NW,324,0.0,3.0,60,0.00,,,0.00,weatherlink.com 1.10,2013-02-20 15:59:00,
2013-02-20 10:14:00,31.5,18.0,30.35,West,269,0.0,3.0,58,0.00,,,0.00,weatherlink.com 1.10,2013-02-20 16:14:00,
2013-02-20 10:29:00,31.2,17.0,30.34,NNW,340,0.0,5.0,55,0.00,,,0.00,weatherlink.com 1.10,2013-02-20 16:29:00,
2013-02-20 10:44:00,31.2,17.0,30.34,NE,49,4.0,5.0,55,0.00,,,0.00,weatherlink.com 1.10,2013-02-20 16:44:00,
2013-02-20 10:59:00,32.0,18.0,30.33,WNW,297,0.0,2.0,57,0.00,,,0.00,weatherlink.com 1.10,2013-02-20 16:59:00,
2013-02-20 11:14:00,32.1,17.0,30.33,North,11,3.0,5.0,53,0.00,,,0.00,weatherlink.com 1.10,2013-02-20 17:14:00,
2013-02-20 11:29:00,32.6,17.0,30.33,NNE,22,0.0,6.0,52,0.00,,,0.00,weatherlink.com 1.10,2013-02-20 17:29:00,
2013-02-20 11:44:00,32.5,16.0,30.32,North,349,2.0,5.0,50,0.00,,,0.00,weatherlink.com 1.10,2013-02-20 17:44:00,
2013-02-20 11:59:00,32.7,16.0,30.32,WNW,302,2.0,4.0,50,0.00,,,0.00,weatherlink.com 1.10,2013-02-20 17:59:00,
2013-02-20 12:14:00,32.8,15.0,30.32,North,10,3.0,6.0,49,0.00,,,0.00,weatherlink.com 1.10,2013-02-20 18:14:00,
2013-02-20 12:29:00,32.9,15.0,30.31,NW,317,1.0,5.0,48,0.00,,,0.00,weatherlink.com 1.10,2013-02-20 18:29:00,
2013-02-20 12:44:00,32.9,15.0,30.30,NW,323,3.0,5.0,47,0.00,,,0.00,weatherlink.com 1.10,2013-02-20 18:44:00,
2013-02-20 12:59:00,32.9,15.0,30.30,NW,304,2.0,6.0,47,0.00,,,0.00,weatherlink.com 1.10,2013-02-20 18:59:00,
2013-02-20 13:14:00,32.9,15.0,30.30,NE,55,1.0,4.0,49,0.00,,,0.00,weatherlink.com 1.10,2013-02-20 19:14:00,
2013-02-20 13:29:00,33.0,16.0,30.31,WNW,292,0.0,5.0,49,0.00,,,0.00,weatherlink.com 1.10,2013-02-20 19:29:00,
2013-02-20 13:44:00,33.8,16.0,30.31,WSW,257,1.0,7.0,48,0.00,,,0.00,weatherlink.com 1.10,2013-02-20 19:44:00,
2013-02-20 13:59:00,34.0,16.0,30.31,West,280,3.0,5.0,48,0.00,,,0.00,weatherlink.com 1.10,2013-02-20 19:59:00,
2013-02-20 14:14:00,33.7,16.0,30.31,NW,322,1.0,4.0,48,0.00,,,0.00,weatherlink.com 1.10,2013-02-20 20:14:00,
2013-02-20 14:29:00,33.6,17.0,30.30,NW,309,0.0,4.0,50,0.00,,,0.00,weatherlink.com 1.10,2013-02-20 20:29:00,
2013-02-20 14:44:00,33.5,17.0,30.30,North,9,0.0,3.0,50,0.00,,,0.00,weatherlink.com 1.10,2013-02-20 20:44:00,
2013-02-20 14:59:00,33.4,17.0,30.29,NNE,30,0.0,4.0,51,0.00,,,0.00,weatherlink.com 1.10,2013-02-20 20:59:00,
2013-02-20 15:14:00,33.1,17.0,30.28,NNE,20,4.0,4.0,51,0.00,,,0.00,weatherlink.com 1.10,2013-02-20 21:14:00,
2013-02-20 15:29:00,33.4,18.0,30.26,NE,46,1.0,3.0,53,0.00,,,0.00,weatherlink.com 1.10,2013-02-20 21:29:00,
2013-02-20 15:44:00,34.1,17.0,30.25,NE,47,0.0,6.0,50,0.00,,,0.00,weatherlink.com 1.10,2013-02-20 21:44:00,
2013-02-20 15:59:00,34.1,17.0,30.27,NW,323,1.0,7.0,49,0.00,,,0.00,weatherlink.com 1.10,2013-02-20 21:59:00,
2013-02-20 16:14:00,35.0,17.0,30.26,ENE,63,1.0,6.0,49,0.00,,,0.00,weatherlink.com 1.10,2013-02-20 22:14:00,
2013-02-20 16:29:00,35.7,18.0,30.26,ENE,76,1.0,4.0,48,0.00,,,0.00,weatherlink.com 1.10,2013-02-20 22:29:00,
2013-02-20 16:44:00,34.6,17.0,30.27,North,9,0.0,4.0,48,0.00,,,0.00,weatherlink.com 1.10,2013-02-20 22:44:00,
2013-02-20 16:59:00,33.4,17.0,30.27,NNE,17,0.0,2.0,51,0.00,,,0.00,weatherlink.com 1.10,2013-02-20 22:59:00,
2013-02-20 17:14:00,32.8,18.0,30.26,NNE,17,0.0,1.0,54,0.00,,,0.00,weatherlink.com 1.10,2013-02-20 23:14:00,
2013-02-20 17:29:00,32.3,17.0,30.27,NNE,17,0.0,0.0,54,0.00,,,0.00,weatherlink.com 1.10,2013-02-20 23:29:00,
2013-02-20 17:44:00,31.9,18.0,30.26,NNE,17,0.0,1.0,56,0.00,,,0.00,weatherlink.com 1.10,2013-02-20 23:44:00,
2013-02-20 17:59:00,31.5,18.0,30.25,NNE,17,0.0,1.0,58,0.00,,,0.00,weatherlink.com 1.10,2013-02-20 23:59:00,
2013-02-20 18:14:00,30.9,18.0,30.25,NNE,17,0.0,1.0,59,0.00,,,0.00,weatherlink.com 1.10,2013-02-21 00:14:00,
2013-02-20 18:29:00,30.5,18.0,30.26,NNE,17,0.0,0.0,61,0.00,,,0.00,weatherlink.com 1.10,2013-02-21 00:29:00,
2013-02-20 18:44:00,30.0,19.0,30.26,NNE,17,0.0,0.0,63,0.00,,,0.00,weatherlink.com 1.10,2013-02-21 00:44:00,
2013-02-20 18:59:00,29.8,20.0,30.26,NNE,17,0.0,0.0,66,0.00,,,0.00,weatherlink.com 1.10,2013-02-21 00:59:00,
2013-02-20 19:14:00,29.4,20.0,30.25,NNE,17,0.0,0.0,67,0.00,,,0.00,weatherlink.com 1.10,2013-02-21 01:14:00,
2013-02-20 19:29:00,28.7,20.0,30.26,NNE,17,0.0,0.0,70,0.00,,,0.00,weatherlink.com 1.10,2013-02-21 01:29:00,
2013-02-20 19:44:00,28.5,20.0,30.26,NNE,17,0.0,1.0,71,0.00,,,0.00,weatherlink.com 1.10,2013-02-21 01:44:00,
2013-02-20 19:59:00,28.2,18.0,30.27,NNE,17,0.0,1.0,67,0.00,,,0.00,weatherlink.com 1.10,2013-02-21 01:59:00,
2013-02-20 20:14:00,28.2,18.0,30.26,NNE,17,0.0,2.0,67,0.00,,,0.00,weatherlink.com 1.10,2013-02-21 02:14:00,
2013-02-20 20:29:00,28.8,18.0,30.26,NNE,17,0.0,1.0,64,0.00,,,0.00,weatherlink.com 1.10,2013-02-21 02:29:00,
2013-02-20 20:44:00,29.0,18.0,30.27,NNE,17,0.0,1.0,64,0.00,,,0.00,weatherlink.com 1.10,2013-02-21 02:44:00,
2013-02-20 20:59:00,28.8,19.0,30.27,NNE,17,0.0,1.0,66,0.00,,,0.00,weatherlink.com 1.10,2013-02-21 02:59:00,
2013-02-20 21:14:00,28.1,19.0,30.27,North,5,0.0,1.0,69,0.00,,,0.00,weatherlink.com 1.10,2013-02-21 03:14:00,
2013-02-20 21:29:00,28.1,18.0,30.27,North,5,0.0,2.0,67,0.00,,,0.00,weatherlink.com 1.10,2013-02-21 03:29:00,
2013-02-20 21:44:00,27.9,19.0,30.27,North,5,0.0,2.0,68,0.00,,,0.00,weatherlink.com 1.10,2013-02-21 03:44:00,
2013-02-20 22:00:00,28.8,18.0,30.27,North,9,2.0,4.0,65,0.00,,,0.00,weatherlink.com 1.10,2013-02-21 04:00:00,
2013-02-20 22:14:00,29.1,19.0,30.25,NNE,30,0.0,3.0,65,0.00,,,0.00,weatherlink.com 1.10,2013-02-21 04:14:00,
2013-02-20 22:29:00,29.0,19.0,30.25,NE,51,0.0,4.0,65,0.00,,,0.00,weatherlink.com 1.10,2013-02-21 04:29:00,
2013-02-20 22:44:00,29.1,19.0,30.25,NNE,20,1.0,4.0,65,0.00,,,0.00,weatherlink.com 1.10,2013-02-21 04:44:00,
2013-02-20 22:59:00,28.9,18.0,30.25,ENE,60,1.0,4.0,65,0.00,,,0.00,weatherlink.com 1.10,2013-02-21 04:59:00,
2013-02-20 23:14:00,28.7,19.0,30.25,ENE,59,0.0,4.0,66,0.00,,,0.00,weatherlink.com 1.10,2013-02-21 05:14:00,
2013-02-20 23:30:00,28.5,18.0,30.25,NE,40,0.0,4.0,66,0.00,,,0.00,weatherlink.com 1.10,2013-02-21 05:30:00,
2013-02-20 23:45:00,28.3,18.0,30.25,NE,37,0.0,2.0,66,0.00,,,0.00,weatherlink.com 1.10,2013-02-21 05:45:00,